新千歳空港の過去48時間の天気

新千歳空港 (Sapporo/New Chitose)

現在時刻: 7/18 13:56 JST (7/18 04:56 UTC) 以下の時間は現地時間です。

過去48時間のMETAR気象情報
時間 風向 風速(m/s) 視程 気温(℃) 湿度(%) 気圧(hPa) 天気現象
18 13:30 5 10km以上 21 73 1011
18 13:00 5 10km以上 21 73 1011
18 12:30 5 10km以上 21 73 1011
18 12:00 6 10km以上 21 73 1011
18 11:30 5 10km以上 22 73 1011
18 11:00 6 10km以上 21 73 1011
18 10:30 6 10km以上 21 73 1011
18 10:00 5 10km以上 22 73 1011
18 09:30 3 10km以上 21 78 1011
18 09:00 2 10km以上 22 78 1011
18 08:30 東南東 2 10km以上 21 73 1010
18 08:00 不定 1 10km以上 21 78 1011
18 07:30 不定 1 10km以上 20 83 1011
18 07:00 北西 2 10km以上 19 88 1011
18 06:30 2 10km以上 19 88 1011
18 06:00 2 10km以上 18 88 1011
18 05:30 北北東 2 10km以上 18 88 1010
18 05:00 2 10km以上 18 88 1010
18 04:30 3 10km以上 18 88 1010
18 04:00 2 10km以上 18 88 1010
18 03:30 2 10km以上 18 88 1010
18 03:00 2 10km以上 18 88 1010
18 02:30 2 10km以上 18 88 1010
18 02:00 2 10km以上 18 88 1010
18 01:30 2 10km以上 18 88 1010
18 01:00 2 10km以上 18 88 1009
18 00:30 3 10km以上 18 88 1009
18 00:00 3 10km以上 18 88 1009
17 23:30 3 10km以上 18 88 1009
17 23:00 3 10km以上 18 83 1009
17 22:30 3 10km以上 19 78 1009
17 22:00 3 10km以上 19 78 1009
17 21:30 3 10km以上 19 78 1009
17 21:00 4 10km以上 19 73 1009
17 20:30 3 10km以上 19 73 1009
17 20:00 3 10km以上 20 73 1009
17 19:30 3 10km以上 20 73 1009
17 19:00 3 10km以上 20 73 1009
17 18:30 北北東 3 10km以上 21 69 1009
17 18:00 3 10km以上 22 65 1009
17 17:30 3 10km以上 22 69 1009
17 17:00 北北東 3 10km以上 22 69 1008
17 16:30 北北東 4 10km以上 23 69 1008
17 16:00 4 10km以上 23 69 1008
17 15:30 4 10km以上 24 69 1008
17 15:00 4 10km以上 26 70 1008 弱いしゅう雨
17 14:30 2 10km以上 26 74 1008
17 14:00 不定 2 10km以上 27 66 1008
17 13:30 2 10km以上 26 61 1008
17 13:00 北北西 2 10km以上 26 61 1008
17 12:30 北北東 2 10km以上 26 61 1008
17 12:00 北北東 2 10km以上 26 61 1008
17 11:30 北東 2 10km以上 26 58 1008
17 11:00 2 10km以上 25 65 1008
17 10:30 北北東 3 10km以上 23 65 1009
17 10:00 3 10km以上 23 65 1009
17 09:30 3 10km以上 23 69 1009
17 09:00 北北西 4 10km以上 23 69 1009
17 08:30 北北西 4 10km以上 22 69 1009
17 08:00 北北西 4 10km以上 20 78 1009
17 07:30 3 10km以上 20 78 1010
17 07:00 4 10km以上 19 83 1009
17 06:30 4 10km以上 18 88 1010
17 06:00 4 10km以上 17 94 1010
17 05:30 4 10km以上 17 88 1010
17 05:00 北北西 3 10km以上 17 88 1010
17 04:30 3 10km以上 16 94 1010
17 04:00 3 10km以上 17 88 1010
17 03:30 3 10km以上 17 88 1010
17 03:00 3 10km以上 17 94 1010
17 02:30 3 10km以上 17 94 1010
17 02:00 3 10km以上 17 94 1010
17 01:30 2 10km以上 17 88 1010
17 01:00 3 10km以上 17 88 1010
17 00:30 2 10km以上 17 88 1010
17 00:00 北北西 3 10km以上 17 88 1009
16 23:30 3 10km以上 17 88 1010
16 23:00 3 10km以上 17 94 1010
16 22:30 3 10km以上 17 88 1010
16 22:00 3 10km以上 18 83 1010
16 21:30 2 10km以上 18 88 1010
16 21:00 3 10km以上 19 83 1010
16 20:30 4 10km以上 19 83 1010
16 20:00 5 10km以上 20 83 1010
16 19:30 3 10km以上 20 83 1009
16 19:00 北北西 4 10km以上 21 73 1009
16 18:30 北北西 5 10km以上 21 78 1009
16 18:00 北北西 5 10km以上 22 73 1009
16 17:30 北北西 6 10km以上 22 73 1009
16 17:00 北北西 7 10km以上 23 69 1009
16 16:30 北北西 7 10km以上 23 73 1009
16 16:00 北北西 7 10km以上 23 73 1009
16 15:30 北北西 7 10km以上 23 73 1009
16 15:00 6 10km以上 23 73 1009
16 14:30 5 10km以上 23 73 1009
16 14:00 6 10km以上 24 69 1009
RJCC 180430Z 18010KT 9999 FEW015 BKN035 21/16 Q1011 RMK 1ST015 7CU035 A2986
RJCC 180400Z 18010KT 9999 FEW015 BKN035 21/16 Q1011 RMK 1ST015 7CU035 A2986
RJCC 180330Z 19010KT 9999 FEW015 BKN035 21/16 Q1011 RMK 1ST015 7CU035 A2986
RJCC 180300Z 17011KT 9999 FEW015 BKN035 21/16 Q1011 RMK 1ST015 7CU035 A2986
RJCC 180230Z 19010KT 9999 FEW015 BKN035 22/17 Q1011 RMK 1ST015 7CU035 A2986
RJCC 180200Z 18011KT 9999 FEW015 BKN035 21/16 Q1011 RMK 1ST015 7CU035 A2986
RJCC 180130Z 17011KT 9999 FEW015 BKN035 21/16 Q1011 RMK 1ST015 7CU035 A2986
RJCC 180100Z 17010KT 9999 FEW015 BKN035 BKN/// 22/17 Q1011 RMK 1ST015 6CU035 A2986
RJCC 180030Z 17006KT 9999 FEW018 SCT040 BKN/// 21/17 Q1011
RJCC 180000Z 19004KT 100V240 9999 FEW018 SCT040 BKN150 22/18 Q1011 RMK 2CU018 4CU040 6AC150 A2986
RJCC 172330Z 12003KT 070V220 9999 FEW020 SCT040 BKN150 21/16 Q1010 RMK 1CU020 4CU040 6AC150 A2985
RJCC 172300Z VRB02KT 9999 FEW020 SCT040 BKN150 21/17 Q1011 RMK 1CU020 4CU040 6AC150 A2985
RJCC 172230Z VRB02KT 9999 FEW012 SCT040 BKN150 20/17 Q1011 RMK 1ST012 4CU040 6AC150 A2986
RJCC 172200Z 32003KT 290V080 9999 FEW010 SCT050 BKN150 19/17 Q1011 RMK 1ST010 3SC050 6AC150 A2986
RJCC 172130Z 35003KT 320V020 9999 FEW010 SCT035 BKN050 19/17 Q1011 RMK 1ST010 4CU035 6SC050 A2986
RJCC 172100Z 36004KT 9999 FEW010 BKN035 18/16 Q1011 RMK 1ST010 7CU035 A2986
RJCC 172030Z 02003KT 9999 FEW010 BKN035 18/16 Q1010 RMK 1ST010 7CU035 A2985
RJCC 172000Z 36004KT 9999 FEW010 BKN035 18/16 Q1010 RMK 1ST010 7CU035 A2985
RJCC 171930Z 36005KT 9999 FEW010 BKN035 18/16 Q1010 RMK 1ST010 7CU035 A2984
RJCC 171900Z 35004KT 9999 FEW010 BKN035 18/16 Q1010 RMK 1ST010 7CU035 A2984
RJCC 171830Z 01004KT 9999 FEW020 BKN035 18/16 Q1010 RMK 1CU020 7CU035 A2984
RJCC 171800Z 01004KT 9999 FEW020 BKN040 18/16 Q1010 RMK 1CU020 7CU040 A2984
RJCC 171730Z 01003KT 330V030 9999 FEW020 BKN040 18/16 Q1010 RMK 1CU020 7CU040 A2983
RJCC 171700Z 01004KT 9999 FEW020 BKN040 18/16 Q1010 RMK 1CU020 7CU040 A2982
RJCC 171630Z 36003KT 9999 FEW020 BKN040 18/16 Q1010 RMK 1CU020 7CU040 A2982
RJCC 171600Z 35004KT 9999 FEW020 BKN040 18/16 Q1009 RMK 1CU020 7CU040 A2982
RJCC 171530Z 35005KT 9999 FEW020 SCT040 BKN050 18/16 Q1009 RMK 1CU020 3CU040 7CU050 A2982
RJCC 171500Z 35006KT 9999 FEW020 BKN050 18/16 Q1009 RMK 1CU020 7CU050 A2982
RJCC 171430Z 01006KT 9999 FEW020 BKN060 18/16 Q1009 RMK 1CU020 7CU060 A2982
RJCC 171400Z 01006KT 9999 FEW020 BKN050 18/15 Q1009 RMK 1CU020 7CU050 A2982
RJCC 171330Z 01006KT 9999 FEW020 BKN050 19/15 Q1009 RMK 1CU020 7CU050 A2982
RJCC 171300Z 01005KT 9999 FEW020 BKN050 19/15 Q1009 RMK 1CU020 7CU050 A2981
RJCC 171230Z 01006KT 9999 FEW020 BKN050 19/15 Q1009 RMK 1CU020 7CU050 A2981
RJCC 171200Z 36007KT 9999 FEW020 BKN060 19/14 Q1009 RMK 1CU020 7CU060 A2981
RJCC 171130Z 01006KT 9999 FEW020 BKN050 19/14 Q1009 RMK 1CU020 7CU050 A2981
RJCC 171100Z 01006KT 9999 FEW020 BKN050 20/15 Q1009 RMK 1CU020 7CU050 A2981
RJCC 171030Z 01005KT 9999 FEW020 BKN050 20/15 Q1009 RMK 1CU020 7CU050 A2980
RJCC 171000Z 01006KT 9999 FEW020 SCT040 BKN130 20/15 Q1009 RMK 1CU020 4CU040 5AC130 A2980
RJCC 170930Z 02006KT 9999 FEW020 SCT040 BKN/// 21/15 Q1009
RJCC 170900Z 36006KT 310V030 9999 FEW020 SCT035 BKN040 22/15 Q1009 RMK 1CU020 3CU035 5CU040 A2980
RJCC 170830Z 36006KT 9999 FEW020 BKN035 22/16 Q1009 RMK 1CU020 7CU035 A2980
RJCC 170800Z 02006KT 9999 FEW020 SCT030 BKN040 22/16 Q1008 RMK 1CU020 3CU030 6CU040 A2979
RJCC 170730Z 02007KT 9999 FEW020 SCT030 BKN040 23/17 Q1008 RMK 1CU020 3CU030 6CU040 A2978
RJCC 170700Z 36007KT 330V030 9999 FEW020 SCT030 BKN040 23/17 Q1008 RMK 1CU020 3CU030 6CU040 A2978
RJCC 170630Z 35008KT 9999 FEW020 BKN030 24/18 Q1008 RMK 2CU020 6CU030 A2978
RJCC 170600Z 35007KT 9999 -SHRA FEW020 SCT025 BKN040 26/20 Q1008 RMK 1CU020 3CU025 6CU040 A2977
RJCC 170530Z 19004KT 110V250 9999 FEW025 SCT040 BKN/// 26/21 Q1008
RJCC 170500Z VRB03KT 9999 FEW025 SCT040 BKN/// 27/20 Q1008
RJCC 170430Z 01004KT 230V040 9999 FEW020 BKN/// 26/18 Q1008
RJCC 170400Z 34004KT 280V060 9999 FEW018 BKN/// 26/18 Q1008
RJCC 170330Z 02003KT 330V080 9999 FEW018 BKN/// 26/18 Q1008 RMK 1ST018 A2977
RJCC 170300Z 02003KT 330V090 9999 FEW018 BKN/// 26/18 Q1008
RJCC 170230Z 04003KT 320V100 9999 FEW018 BKN/// 26/17 Q1008
RJCC 170200Z 01004KT 260V050 9999 FEW025 BKN/// 25/18 Q1008
RJCC 170130Z 02006KT 9999 FEW025 BKN/// 23/16 Q1009 RMK 1CU025 A2980
RJCC 170100Z 36006KT 310V030 9999 FEW025 BKN/// 23/16 Q1009 RMK 1CU025 A2980
RJCC 170030Z 36005KT 9999 FEW025 BKN/// 23/17 Q1009
RJCC 170000Z 33008KT 300V010 9999 FEW025 BKN/// 23/17 Q1009 RMK 1CU025 A2982
RJCC 162330Z 33007KT 310V010 9999 FEW015 BKN/// 22/16 Q1009
RJCC 162300Z 34007KT 9999 FEW015 BKN/// 20/16 Q1009
RJCC 162230Z 36006KT 9999 FEW015 BKN/// 20/16 Q1010 RMK 1ST015 A2982
RJCC 162200Z 36007KT 9999 FEW010 BKN/// 19/16 Q1009
RJCC 162130Z 36008KT 9999 FEW010 SCT045 BKN/// 18/16 Q1010 RMK 1ST010 3CU045 A2983
RJCC 162100Z 36007KT 9999 FEW010 SCT045 BKN/// 17/16 Q1010 RMK 1ST010 3CU045 A2984
RJCC 162030Z 35007KT 9999 FEW010 SCT045 BKN/// 17/15 Q1010 RMK 1ST010 3CU045 A2984
RJCC 162000Z 34006KT 9999 FEW010 BKN/// 17/15 Q1010 RMK 1ST010 A2985
RJCC 161930Z 35006KT 9999 FEW010 BKN/// 16/15 Q1010
RJCC 161900Z 35005KT 9999 FEW010 BKN/// 17/15 Q1010 RMK 1ST010 A2984
RJCC 161830Z 35006KT 9999 FEW010 BKN015 17/15 Q1010 RMK 1ST010 7ST015 A2983
RJCC 161800Z 35005KT 9999 FEW010 BKN018 17/16 Q1010 RMK 1ST010 7ST018 A2982
RJCC 161730Z 36005KT 9999 FEW010 BKN020 17/16 Q1010 RMK 1ST010 7CU020 A2983
RJCC 161700Z 35005KT 9999 FEW010 BKN020 17/16 Q1010 RMK 1ST010 7CU020 A2983
RJCC 161630Z 35004KT 9999 FEW010 BKN020 17/15 Q1010 RMK 1ST010 7CU020 A2983
RJCC 161600Z 36005KT 9999 FEW010 BKN020 17/15 Q1010 RMK 1ST010 7CU020 A2982
RJCC 161530Z 36004KT 9999 FEW010 BKN025 BKN/// 17/15 Q1010 RMK 1ST010 5CU025 A2983
RJCC 161500Z 34005KT 9999 FEW010 BKN/// 17/15 Q1009 RMK 1ST010 A2982
RJCC 161430Z 36005KT 9999 FEW005 BKN025 BKN/// 17/15 Q1010
RJCC 161400Z 35005KT 9999 FEW005 SCT030 BKN/// 17/16 Q1010 RMK 1ST005 3SC030 A2983
RJCC 161330Z 35005KT 9999 FEW005 SCT030 BKN/// 17/15 Q1010
RJCC 161300Z 36006KT 9999 FEW005 SCT030 BKN/// 18/15 Q1010 RMK 1ST005 3SC030 A2983
RJCC 161230Z 36004KT 9999 FEW005 SCT070 BKN/// 18/16 Q1010
RJCC 161200Z 36006KT 9999 FEW005 SCT070 BKN/// 19/16 Q1010 RMK 1ST005 4AC070 A2983
RJCC 161130Z 36007KT 9999 FEW005 SCT070 BKN/// 19/16 Q1010
RJCC 161100Z 36009KT 9999 FEW005 SCT025 BKN/// 20/17 Q1010
RJCC 161030Z 01005KT 9999 FEW005 SCT025 BKN/// 20/17 Q1009
RJCC 161000Z 34008KT 320V020 9999 FEW005 SCT030 BKN/// 21/16 Q1009 RMK 1ST005 4SC030 A2982
RJCC 160930Z 34009KT 9999 FEW005 BKN/// 21/17 Q1009 RMK 1ST005 A2982
RJCC 160900Z 34010KT 9999 FEW005 SCT015 BKN/// 22/17 Q1009 RMK 1ST005 3ST015 A2981
RJCC 160830Z 34012KT 9999 FEW010 SCT018 BKN/// 22/17 Q1009
RJCC 160800Z 33013KT 9999 FEW015 SCT018 23/17 Q1009 RMK 1ST015 3ST018 A2980
RJCC 160730Z 34013KT 9999 FEW012 SCT015 23/18 Q1009 RMK 1ST012 3ST015 A2980
RJCC 160700Z 34013KT 9999 FEW012 SCT015 23/18 Q1009 RMK 1ST012 3ST015 A2980
RJCC 160630Z 34013KT 9999 FEW012 SCT015 23/18 Q1009 RMK 1ST012 3ST015 A2980
RJCC 160600Z 35011KT 9999 FEW012 SCT015 23/18 Q1009 RMK 1ST012 3ST015 A2980
RJCC 160530Z 01010KT 9999 FEW012 SCT015 23/18 Q1009 RMK 1ST012 4ST015 A2979
RJCC 160500Z 35011KT 330V040 9999 FEW012 SCT015 24/18 Q1009 RMK 1ST012 4ST015 A2979